createdAt,value
2023-05-25T00:01:36.440Z,14.10
2023-05-25T00:04:04.356Z,13.48
2023-05-25T00:06:32.255Z,16.13
2023-05-25T00:08:58.881Z,15.30
2023-05-25T00:14:31.001Z,16.05
2023-05-25T00:16:58.502Z,15.82
2023-05-25T00:19:25.270Z,15.75
2023-05-25T00:21:52.228Z,13.57
2023-05-25T00:24:18.972Z,12.98
2023-05-25T00:26:45.798Z,15.10
2023-05-25T00:29:13.377Z,15.55
2023-05-25T00:31:39.969Z,15.20
2023-05-25T00:34:06.711Z,16.63
2023-05-25T00:36:33.353Z,17.35
2023-05-25T00:38:59.963Z,16.50
2023-05-25T00:41:27.268Z,19.15
2023-05-25T00:43:53.868Z,15.43
2023-05-25T00:46:20.513Z,16.45
2023-05-25T00:48:47.237Z,14.35
2023-05-25T00:51:14.458Z,16.70
2023-05-25T00:53:41.528Z,14.77
2023-05-25T00:56:50.986Z,16.23
2023-05-25T00:59:31.388Z,15.63
2023-05-25T01:01:57.995Z,13.90
2023-05-25T01:04:24.656Z,15.23
2023-05-25T01:06:52.767Z,15.27
2023-05-25T01:09:19.740Z,14.10
2023-05-25T01:11:49.316Z,16.38
2023-05-25T01:14:18.747Z,13.95
2023-05-25T01:16:45.547Z,14.43
2023-05-25T01:19:12.246Z,14.45
2023-05-25T01:31:11.978Z,13.32
2023-05-25T01:33:38.597Z,12.60
2023-05-25T01:36:05.491Z,13.45
2023-05-25T01:38:32.107Z,11.60
2023-05-25T01:40:58.670Z,16.15
2023-05-25T01:43:25.667Z,12.75
2023-05-25T01:45:53.058Z,15.95
2023-05-25T01:57:17.820Z,14.07
2023-05-25T02:08:52.901Z,11.38
2023-05-25T02:11:19.578Z,11.73
2023-05-25T02:13:46.349Z,13.52
2023-05-25T02:16:13.037Z,12.90
2023-05-25T02:18:39.676Z,12.98
2023-05-25T02:21:06.371Z,12.02
2023-05-25T02:23:33.247Z,13.00
2023-05-25T02:26:00.557Z,14.45
2023-05-25T02:28:27.313Z,13.45
2023-05-25T02:30:54.138Z,14.13
2023-05-25T02:33:20.978Z,15.32
2023-05-25T02:35:47.652Z,14.38
2023-05-25T02:38:14.290Z,13.77
2023-05-25T02:40:41.072Z,15.40
2023-05-25T02:43:07.801Z,12.20
2023-05-25T02:45:35.019Z,15.32
2023-05-25T02:48:02.517Z,12.30
2023-05-25T02:50:29.288Z,13.95
2023-05-25T02:52:56.506Z,13.15
2023-05-25T02:55:23.188Z,14.30
2023-05-25T02:57:49.874Z,12.25
2023-05-25T03:00:19.336Z,14.00
2023-05-25T03:02:46.947Z,11.07
2023-05-25T03:05:28.606Z,12.15
2023-05-25T03:08:07.454Z,12.77
2023-05-25T03:10:34.065Z,12.73
2023-05-25T03:13:01.121Z,13.35
2023-05-25T03:15:27.820Z,13.40
2023-05-25T03:17:56.953Z,11.52
2023-05-25T03:20:24.870Z,12.60
2023-05-25T03:22:52.043Z,15.18
2023-05-25T03:25:18.809Z,14.90
2023-05-25T03:30:39.927Z,13.20
2023-05-25T03:33:06.761Z,13.13
2023-05-25T03:35:33.520Z,15.68
2023-05-25T03:38:00.465Z,13.65
2023-05-25T05:02:12.773Z,11.10
2023-05-25T05:04:41.390Z,11.07
2023-05-25T05:07:09.268Z,11.00
2023-05-25T05:09:36.101Z,9.77
2023-05-25T05:12:03.220Z,12.68
2023-05-25T05:14:29.855Z,13.43
2023-05-25T05:16:56.584Z,15.30
2023-05-25T05:19:23.603Z,14.55
2023-05-25T05:21:50.236Z,16.33
2023-05-25T05:24:16.863Z,16.25
2023-05-25T05:26:55.478Z,15.35
2023-05-25T05:29:24.035Z,15.23
2023-05-25T05:31:50.729Z,16.05
2023-05-25T05:34:17.560Z,17.33
2023-05-25T05:36:56.646Z,16.42
2023-05-25T05:39:24.920Z,15.52
2023-05-25T05:41:51.533Z,16.92
2023-05-25T05:44:18.547Z,17.20
2023-05-25T05:46:45.223Z,15.57
2023-05-25T05:49:11.875Z,17.33
2023-05-25T05:51:38.488Z,18.70
2023-05-25T05:54:05.399Z,17.90
2023-05-25T05:56:32.117Z,17.73
2023-05-25T05:58:58.720Z,18.98
2023-05-25T06:01:25.559Z,19.15
2023-05-25T06:03:54.456Z,17.25
2023-05-25T06:06:21.734Z,15.90
2023-05-25T06:08:48.380Z,14.43
2023-05-25T06:11:14.968Z,14.73
2023-05-25T06:13:41.563Z,14.60
2023-05-25T06:16:08.197Z,17.73
2023-05-25T06:18:34.825Z,19.17
2023-05-25T06:21:01.737Z,15.60
2023-05-25T06:23:28.334Z,16.02
2023-05-25T06:25:55.369Z,16.15
2023-05-25T06:28:21.997Z,16.33
2023-05-25T06:30:48.613Z,14.70
2023-05-25T06:33:15.200Z,16.45
2023-05-25T06:35:42.133Z,17.80
2023-05-25T06:38:09.262Z,16.23
2023-05-25T06:40:35.831Z,16.17
2023-05-25T06:43:02.497Z,14.00
2023-05-25T06:45:29.071Z,14.98
2023-05-25T06:47:55.730Z,13.25
2023-05-25T06:50:22.414Z,13.52
2023-05-25T06:52:49.013Z,13.68
2023-05-25T06:55:15.652Z,13.63
2023-05-25T06:57:43.729Z,13.35
2023-05-25T07:00:13.746Z,15.05
2023-05-25T07:02:40.368Z,16.05
2023-05-25T07:05:07.276Z,15.15
2023-05-25T07:07:33.907Z,15.38
2023-05-25T07:10:02.770Z,13.70
2023-05-25T07:12:29.351Z,14.93
2023-05-25T07:14:57.648Z,15.48
2023-05-25T07:17:24.334Z,14.43
2023-05-25T07:19:51.046Z,15.05
2023-05-25T07:22:19.066Z,14.82
2023-05-25T07:24:48.656Z,15.13
2023-05-25T07:27:15.239Z,14.73
2023-05-25T07:29:41.819Z,14.68
2023-05-25T07:32:08.460Z,12.23
2023-05-25T07:34:35.114Z,12.18
2023-05-25T07:37:01.705Z,12.32
2023-05-25T07:39:28.316Z,12.93
2023-05-25T07:41:54.997Z,13.80
2023-05-25T07:44:21.554Z,11.05
2023-05-25T07:46:48.159Z,13.55
2023-05-25T07:49:16.364Z,11.32
2023-05-25T07:51:46.048Z,11.15
2023-05-25T07:54:12.718Z,12.55
2023-05-25T07:56:39.282Z,11.73
2023-05-25T07:59:06.326Z,12.02
2023-05-25T08:01:32.935Z,11.00
2023-05-25T08:03:59.723Z,11.55
2023-05-25T08:06:26.819Z,12.25
2023-05-25T08:08:53.366Z,10.25
2023-05-25T08:11:24.425Z,9.48
2023-05-25T08:13:51.206Z,11.38
2023-05-25T08:16:19.025Z,11.48
2023-05-25T08:18:46.968Z,11.10
2023-05-25T08:21:13.847Z,9.80
2023-05-25T08:23:42.374Z,10.18
2023-05-25T08:26:26.020Z,7.55
2023-05-25T08:28:56.699Z,10.27
2023-05-25T08:31:23.297Z,8.75
2023-05-25T08:33:49.942Z,8.15
2023-05-25T08:36:16.573Z,8.43
2023-05-25T08:38:43.124Z,9.70
2023-05-25T08:41:09.767Z,9.55
2023-05-25T08:43:36.422Z,9.23
2023-05-25T08:46:06.921Z,8.70
2023-05-25T08:48:41.625Z,8.13
2023-05-25T08:51:10.842Z,8.35
2023-05-25T08:53:39.458Z,6.53
2023-05-25T08:56:10.499Z,7.95
2023-05-25T08:58:40.949Z,9.05
2023-05-25T09:01:08.289Z,6.93
2023-05-25T09:03:35.205Z,7.53
2023-05-25T09:06:01.970Z,6.95
2023-05-25T09:08:28.581Z,6.78
2023-05-25T09:10:55.718Z,7.20
2023-05-25T09:13:23.042Z,6.65
2023-05-25T09:15:50.138Z,8.82
2023-05-25T09:18:18.145Z,7.32
2023-05-25T09:23:29.593Z,6.70
2023-05-25T09:28:51.092Z,8.60
2023-05-25T09:31:17.948Z,7.38
2023-05-25T09:33:44.979Z,8.15
2023-05-25T09:38:57.112Z,7.43
2023-05-25T09:41:31.790Z,9.05
2023-05-25T09:46:40.039Z,7.15
2023-05-25T09:59:48.028Z,8.48
2023-05-25T10:02:15.372Z,9.68
2023-05-25T10:04:42.254Z,7.75
2023-05-25T10:07:09.129Z,7.05
2023-05-25T10:20:36.180Z,8.40
2023-05-25T10:23:17.694Z,9.32
2023-05-25T10:25:44.907Z,8.25
2023-05-25T10:33:51.912Z,8.70
2023-05-25T10:36:19.595Z,7.43
2023-05-25T10:38:51.435Z,7.30
2023-05-25T11:10:55.712Z,7.30
2023-05-25T11:13:22.624Z,7.63
2023-05-25T11:16:08.864Z,6.68
2023-05-25T11:19:06.389Z,7.03
2023-05-25T11:21:35.758Z,6.40
2023-05-25T11:24:04.315Z,8.10
2023-05-25T11:26:32.250Z,6.30
2023-05-25T11:28:59.107Z,8.88
2023-05-25T11:31:38.871Z,8.43
2023-05-25T11:34:09.361Z,6.93
2023-05-25T11:36:36.083Z,7.20
2023-05-25T11:39:11.473Z,5.90
2023-05-25T11:41:48.219Z,6.90
2023-05-25T11:44:14.809Z,8.23
2023-05-25T11:59:55.753Z,6.93
2023-05-25T12:02:22.553Z,7.68
2023-05-25T12:04:54.013Z,6.95
2023-05-25T12:07:20.741Z,7.72
2023-05-25T12:09:47.529Z,7.50
2023-05-25T12:12:14.006Z,8.00
2023-05-25T12:14:47.702Z,6.95
2023-05-25T12:17:14.251Z,7.40
2023-05-25T12:19:40.887Z,7.40
2023-05-25T12:22:07.389Z,7.50
2023-05-25T12:24:33.893Z,6.78
2023-05-25T12:27:02.262Z,9.32
2023-05-25T12:29:28.918Z,8.88
2023-05-25T12:32:05.410Z,7.50
2023-05-25T12:34:31.922Z,8.27
2023-05-25T12:36:58.373Z,9.27
2023-05-25T12:39:31.065Z,8.95
2023-05-25T12:41:59.097Z,7.72
2023-05-25T12:44:35.196Z,6.97
2023-05-25T12:47:16.860Z,7.00
2023-05-25T12:49:44.564Z,7.82
2023-05-25T12:52:11.467Z,7.63
2023-05-25T12:54:45.462Z,7.28
2023-05-25T12:57:12.652Z,7.95
2023-05-25T12:59:39.901Z,8.38
2023-05-25T13:02:07.485Z,9.98
2023-05-25T13:04:34.726Z,8.50
2023-05-25T13:07:01.452Z,7.53
2023-05-25T13:09:27.992Z,7.60
2023-05-25T13:11:55.683Z,6.65
2023-05-25T13:14:23.025Z,7.75
2023-05-25T13:16:53.083Z,7.65
2023-05-25T13:19:20.740Z,7.78
2023-05-25T13:21:49.187Z,9.55
2023-05-25T13:24:16.588Z,9.48
2023-05-25T13:26:45.670Z,10.80
2023-05-25T13:29:13.024Z,8.75
2023-05-25T13:31:39.615Z,7.75
2023-05-25T13:34:06.285Z,7.90
2023-05-25T13:36:34.576Z,8.05
2023-05-25T13:39:01.851Z,7.07
2023-05-25T13:41:28.409Z,6.60
2023-05-25T13:43:54.939Z,7.30
2023-05-25T13:46:33.651Z,6.35
2023-05-25T13:49:01.068Z,8.73
2023-05-25T13:51:27.645Z,6.85
2023-05-25T13:53:54.159Z,7.22
2023-05-25T13:56:20.681Z,6.43
2023-05-25T13:58:47.260Z,9.10
2023-05-25T14:01:13.866Z,6.93
2023-05-25T14:03:40.572Z,8.50
2023-05-25T14:06:07.249Z,8.82
2023-05-25T14:08:33.793Z,7.05
2023-05-25T14:11:00.436Z,7.38
2023-05-25T14:13:27.026Z,7.00
2023-05-25T14:15:53.573Z,7.70
2023-05-25T14:18:20.214Z,7.18
2023-05-25T14:20:46.963Z,6.25
2023-05-25T14:23:15.836Z,7.97
2023-05-25T14:25:44.448Z,7.13
2023-05-25T14:28:11.182Z,6.40
2023-05-25T14:30:37.708Z,7.68
2023-05-25T14:33:04.285Z,5.93
2023-05-25T14:35:30.792Z,6.95
2023-05-25T14:37:57.263Z,7.25
2023-05-25T14:40:23.801Z,6.53
2023-05-25T14:42:50.437Z,7.63
2023-05-25T14:45:18.292Z,6.68
2023-05-25T14:47:44.848Z,6.85
2023-05-25T14:50:11.381Z,8.48
2023-05-25T14:52:37.875Z,6.68
2023-05-25T14:55:04.608Z,9.75
2023-05-25T14:57:31.445Z,7.10
2023-05-25T14:59:58.080Z,7.72
2023-05-25T15:02:24.708Z,7.78
2023-05-25T15:04:51.516Z,6.22
2023-05-25T15:07:18.009Z,7.75
2023-05-25T15:09:45.404Z,7.82
2023-05-25T15:12:12.589Z,8.10
2023-05-25T15:14:41.186Z,7.25
2023-05-25T15:17:08.720Z,6.97
2023-05-25T15:19:35.505Z,6.97
2023-05-25T15:22:02.073Z,7.95
2023-05-25T15:24:28.586Z,7.47
2023-05-25T15:29:38.189Z,7.18
2023-05-25T15:32:06.333Z,7.72
2023-05-25T15:34:32.989Z,8.00
2023-05-25T15:42:13.976Z,9.07
2023-05-25T15:53:30.656Z,10.20
2023-05-25T15:55:57.450Z,7.90
2023-05-25T15:58:24.942Z,7.10
2023-05-25T16:00:51.709Z,8.52
2023-05-25T16:03:18.447Z,7.03
2023-05-25T16:05:45.321Z,8.63
2023-05-25T16:08:14.173Z,8.15
2023-05-25T16:10:40.941Z,7.90
2023-05-25T16:21:36.915Z,9.25
2023-05-25T16:24:04.887Z,8.05
2023-05-25T16:26:31.512Z,8.45
2023-05-25T16:28:58.203Z,8.63
2023-05-25T16:36:47.220Z,9.07
2023-05-25T16:39:13.941Z,7.47
2023-05-25T16:41:43.378Z,7.60
2023-05-25T16:44:12.822Z,9.38
2023-05-25T16:49:06.510Z,7.18
2023-05-25T16:51:33.280Z,7.63
2023-05-25T16:53:59.933Z,8.98
2023-05-25T16:56:34.214Z,11.27
2023-05-25T17:01:54.652Z,9.52
2023-05-25T17:04:21.510Z,8.48
2023-05-25T17:06:48.386Z,8.35
2023-05-25T17:14:58.998Z,11.75
2023-05-25T17:17:28.109Z,9.82
2023-05-25T17:19:55.025Z,12.55
2023-05-25T17:22:25.526Z,9.10
2023-05-25T17:30:09.580Z,8.40
2023-05-25T17:32:36.637Z,11.02
2023-05-25T17:35:03.487Z,8.77
2023-05-25T17:37:30.304Z,8.57
2023-05-25T17:39:57.034Z,11.43
2023-05-25T17:42:23.783Z,9.65
2023-05-25T17:44:50.579Z,11.00
2023-05-25T17:47:17.373Z,11.27
2023-05-25T17:49:44.144Z,9.10
2023-05-25T17:52:10.901Z,9.73
2023-05-25T17:54:37.953Z,8.30
2023-05-25T17:57:04.834Z,10.13
2023-05-25T18:41:20.578Z,9.40
2023-05-25T18:46:30.296Z,9.25
2023-05-25T18:48:57.040Z,9.23
2023-05-25T18:51:26.003Z,8.48
2023-05-25T18:53:52.982Z,7.85
2023-05-25T18:56:20.275Z,8.32
2023-05-25T19:01:29.276Z,6.65
2023-05-25T19:03:59.249Z,8.27
2023-05-25T21:10:14.042Z,8.40
2023-05-25T21:16:07.306Z,8.18
2023-05-25T21:18:34.681Z,7.32
2023-05-25T21:23:57.345Z,8.75
2023-05-25T21:26:24.153Z,10.13
2023-05-25T21:28:50.987Z,7.63
2023-05-25T21:31:17.661Z,8.88
2023-05-25T21:33:46.038Z,8.30
2023-05-25T21:36:13.218Z,10.27
2023-05-25T21:38:39.911Z,8.75
2023-05-25T21:41:06.564Z,7.13
2023-05-25T21:43:33.437Z,9.10
2023-05-25T21:46:00.051Z,7.68
2023-05-25T21:48:26.692Z,9.18
2023-05-25T21:50:53.424Z,8.85
2023-05-25T21:53:20.561Z,7.60
2023-05-25T21:55:47.601Z,10.45
2023-05-25T21:58:14.762Z,9.80
2023-05-25T22:00:41.484Z,8.13
2023-05-25T22:03:08.396Z,7.22
2023-05-25T22:05:35.424Z,9.13
2023-05-25T22:08:03.213Z,9.95
2023-05-25T22:10:29.894Z,8.05
2023-05-25T22:12:56.767Z,13.73
2023-05-25T22:15:23.851Z,7.57
2023-05-25T22:17:50.621Z,8.32
2023-05-25T22:20:17.844Z,7.78
2023-05-25T22:22:47.666Z,8.15
2023-05-25T22:27:41.165Z,6.82
2023-05-25T22:30:08.381Z,7.63
2023-05-25T22:32:35.491Z,6.75
2023-05-25T22:35:02.521Z,8.38
2023-05-25T22:37:29.172Z,7.22
2023-05-25T22:39:57.448Z,8.00
2023-05-25T22:42:24.491Z,10.95
2023-05-25T22:44:51.437Z,8.65
2023-05-25T22:47:18.155Z,6.68
2023-05-25T22:49:45.122Z,7.72
2023-05-25T22:52:11.889Z,9.02
2023-05-25T22:54:38.612Z,7.28
2023-05-25T22:57:06.836Z,8.10
2023-05-25T22:59:33.545Z,7.80
2023-05-25T23:02:00.480Z,8.85
2023-05-25T23:04:27.336Z,9.10
2023-05-25T23:06:53.956Z,7.65
2023-05-25T23:09:20.563Z,7.32
2023-05-25T23:11:47.189Z,8.65
2023-05-25T23:16:55.565Z,9.48
2023-05-25T23:19:23.510Z,6.03
2023-05-25T23:21:50.116Z,7.78
2023-05-25T23:24:17.564Z,7.07
2023-05-25T23:26:44.219Z,9.05
2023-05-25T23:29:12.467Z,7.35
2023-05-25T23:31:41.854Z,7.43
2023-05-25T23:34:08.922Z,8.23
2023-05-25T23:36:36.024Z,7.07
2023-05-25T23:42:28.896Z,7.07
2023-05-25T23:47:26.471Z,6.57
2023-05-25T23:49:53.701Z,7.63
2023-05-25T23:58:02.812Z,6.78
